This is the latest recevied weather packets stored in our database for station/object K4DFD-13. If no packets are shown the sender has not sent any weather packets the latest 10 day(s).
| Time | Temp. | Humidity | Pressure | Rain* | Wind** | Luminosity | Snow |
|---|---|---|---|---|---|---|---|
| 1777669335 | 18.33° C | 46% | 1010.8 hPa | 0 mm | - | - | - |
| 1777669035 | 18.33° C | 45% | 1011.2 hPa | 0 mm | - | - | - |
| 1777668735 | 18.33° C | 45% | 1011.2 hPa | 0 mm | - | - | - |
| 1777668434 | 18.89° C | 44% | 1011.1 hPa | 0 mm | - | - | - |
| 1777668134 | 18.33° C | 46% | 1010.8 hPa | 0 mm | - | - | - |
| 1777667834 | 18.33° C | 46% | 1011.4 hPa | 0 mm | - | - | - |
| 1777667533 | 18.89° C | 45% | 1011 hPa | 0 mm | - | - | - |
| 1777667233 | 18.89° C | 46% | 1011.1 hPa | 0 mm | - | - | - |
| 1777666933 | 18.89° C | 44% | 1011.1 hPa | 0 mm | - | - | - |
| 1777666632 | 19.44° C | 44% | 1011.1 hPa | 0 mm | - | - | - |
| 1777666332 | 18.89° C | 45% | 1011.1 hPa | 0 mm | - | - | - |
| 1777666032 | 18.89° C | 45% | 1011.2 hPa | 0 mm | - | - | - |
| 1777664843 | 19.44° C | 44% | 1011.3 hPa | 0 mm | - | - | - |
| 1777664542 | 18.89° C | 45% | 1011.4 hPa | 0 mm | - | - | - |
| 1777664242 | 18.89° C | 44% | 1011.5 hPa | 0 mm | - | - | - |
| 1777663941 | 18.89° C | 44% | 1011.7 hPa | 0 mm | - | - | - |
| 1777663641 | 18.89° C | 42% | 1011.7 hPa | 0 mm | - | - | - |
| 1777663341 | 18.89° C | 43% | 1011.8 hPa | 0 mm | - | - | - |
| 1777663040 | 18.89° C | 42% | 1011.9 hPa | 0 mm | - | - | - |
| 1777662740 | 18.89° C | 42% | 1011.9 hPa | 0 mm | - | - | - |
| 1777662439 | 18.33° C | 45% | 1011.9 hPa | 0 mm | - | - | - |
| 1777662139 | 18.33° C | 44% | 1012.1 hPa | 0 mm | - | - | - |
| 1777661839 | 17.78° C | 45% | 1012.2 hPa | 0 mm | - | - | - |
| 1777661538 | 17.78° C | 43% | 1012.5 hPa | 0 mm | - | - | - |
| 1777661238 | 17.78° C | 45% | 1012.4 hPa | 0 mm | - | - | - |
* Rain latest hour (hover to see other rain measurements)
** Current wind speed in m/s (hover to see current wind gust speed)